createdAt,value
2023-05-05T00:01:44.956Z,2.92
2023-05-05T00:06:48.657Z,2.75
2023-05-05T00:11:52.485Z,2.83
2023-05-05T00:16:57.617Z,3.55
2023-05-05T00:22:06.685Z,3.77
2023-05-05T00:27:15.373Z,3.25
2023-05-05T00:32:20.535Z,3.70
2023-05-05T00:37:24.369Z,3.17
2023-05-05T00:42:40.661Z,3.08
2023-05-05T00:52:58.006Z,3.20
2023-05-05T00:58:04.030Z,4.10
2023-05-05T01:03:15.380Z,3.20
2023-05-05T01:08:37.781Z,3.92
2023-05-05T01:13:53.791Z,4.00
2023-05-05T01:19:13.606Z,3.63
2023-05-05T01:25:05.945Z,3.97
2023-05-05T01:35:38.840Z,3.70
2023-05-05T01:40:51.536Z,3.92
2023-05-05T01:46:01.688Z,3.78
2023-05-05T01:51:13.368Z,3.20
2023-05-05T01:56:19.166Z,3.50
2023-05-05T02:01:26.487Z,3.75
2023-05-05T02:06:33.252Z,3.70
2023-05-05T02:11:43.713Z,3.35
2023-05-05T02:16:48.198Z,3.80
2023-05-05T02:21:58.627Z,3.75
2023-05-05T02:27:09.512Z,3.57
2023-05-05T02:32:21.616Z,4.07
2023-05-05T02:37:34.851Z,3.80
2023-05-05T02:42:47.701Z,3.83
2023-05-05T02:47:52.185Z,3.75
2023-05-05T02:52:57.696Z,4.03
2023-05-05T02:58:06.710Z,4.03
2023-05-05T03:03:23.312Z,4.38
2023-05-05T03:08:35.236Z,4.43
2023-05-05T03:13:45.198Z,4.28
2023-05-05T03:18:59.778Z,4.63
2023-05-05T03:24:15.761Z,4.53
2023-05-05T03:29:21.925Z,4.40
2023-05-05T03:34:25.976Z,5.00
2023-05-05T03:39:37.277Z,4.07
2023-05-05T03:44:46.978Z,4.93
2023-05-05T03:49:56.277Z,4.70
2023-05-05T03:55:01.443Z,4.28
2023-05-05T04:00:11.952Z,4.15
2023-05-05T04:05:23.611Z,4.72
2023-05-05T04:10:34.595Z,3.83
2023-05-05T04:15:46.188Z,4.22
2023-05-05T04:20:50.733Z,3.70
2023-05-05T04:26:01.150Z,3.33
2023-05-05T04:31:10.810Z,4.07
2023-05-05T04:36:19.118Z,3.67
2023-05-05T04:41:30.497Z,3.90
2023-05-05T04:46:40.008Z,4.15
2023-05-05T04:51:48.902Z,3.88
2023-05-05T04:56:59.272Z,3.97
2023-05-05T05:02:03.237Z,3.97
2023-05-05T05:07:07.147Z,3.40
2023-05-05T05:12:17.328Z,3.47
2023-05-05T05:17:22.542Z,2.78
2023-05-05T05:22:31.737Z,3.83
2023-05-05T05:27:42.792Z,3.58
2023-05-05T05:32:53.097Z,4.20
2023-05-05T05:37:57.380Z,4.45
2023-05-05T05:43:04.174Z,3.92
2023-05-05T05:48:08.638Z,3.78
2023-05-05T05:53:12.529Z,3.40
2023-05-05T05:58:18.759Z,3.20
2023-05-05T06:08:32.797Z,3.17
2023-05-05T06:13:38.203Z,3.50
2023-05-05T06:18:48.228Z,2.78
2023-05-05T06:23:57.303Z,3.28
2023-05-05T06:29:02.801Z,3.63
2023-05-05T06:34:06.622Z,3.47
2023-05-05T06:39:10.587Z,3.83
2023-05-05T06:44:21.061Z,2.72
2023-05-05T06:49:29.764Z,3.33
2023-05-05T06:54:38.475Z,4.00
2023-05-05T06:59:48.561Z,3.63
2023-05-05T07:04:52.307Z,3.45
2023-05-05T07:10:01.075Z,3.67
2023-05-05T07:15:23.392Z,3.40
2023-05-05T07:20:35.146Z,3.13
2023-05-05T07:25:44.996Z,4.10
2023-05-05T07:30:55.244Z,3.83
2023-05-05T07:36:04.310Z,3.85
2023-05-05T07:41:13.040Z,4.20
2023-05-05T07:46:23.128Z,4.35
2023-05-05T07:51:27.828Z,3.65
2023-05-05T07:56:36.591Z,4.80
2023-05-05T08:01:46.644Z,3.72
2023-05-05T08:06:55.420Z,4.15
2023-05-05T08:12:04.235Z,4.38
2023-05-05T08:17:14.329Z,3.53
2023-05-05T08:22:18.081Z,4.38
2023-05-05T08:27:21.803Z,3.92
2023-05-05T08:32:32.689Z,3.65
2023-05-05T08:37:41.414Z,4.20
2023-05-05T08:42:50.520Z,3.63
2023-05-05T08:47:57.163Z,4.35
2023-05-05T08:53:10.630Z,4.45
2023-05-05T08:58:19.961Z,4.35
2023-05-05T09:03:30.999Z,4.63
2023-05-05T09:08:40.153Z,4.18
2023-05-05T09:13:49.017Z,4.45
2023-05-05T09:19:05.743Z,4.28
2023-05-05T09:24:15.670Z,3.70
2023-05-05T09:29:20.394Z,3.65
2023-05-05T09:34:30.468Z,3.70
2023-05-05T09:39:55.045Z,4.10
2023-05-05T09:45:03.818Z,3.67
2023-05-05T09:50:16.241Z,3.58
2023-05-05T09:55:25.519Z,3.75
2023-05-05T10:00:39.736Z,4.10
2023-05-05T10:05:51.957Z,3.38
2023-05-05T10:11:04.690Z,3.60
2023-05-05T10:16:09.914Z,3.58
2023-05-05T10:21:17.675Z,3.75
2023-05-05T10:26:28.661Z,4.18
2023-05-05T10:31:43.057Z,4.03
2023-05-05T10:36:55.208Z,3.92
2023-05-05T10:42:03.928Z,4.10
2023-05-05T10:47:14.009Z,3.63
2023-05-05T10:52:31.894Z,3.47
2023-05-05T10:57:43.079Z,4.35
2023-05-05T11:02:46.877Z,4.28
2023-05-05T11:08:26.383Z,3.80
2023-05-05T11:13:35.181Z,3.97
2023-05-05T11:18:40.701Z,3.60
2023-05-05T11:23:47.650Z,4.32
2023-05-05T11:28:59.338Z,3.50
2023-05-05T11:34:28.358Z,3.35
2023-05-05T11:39:45.834Z,3.70
2023-05-05T11:44:55.515Z,3.92
2023-05-05T11:50:00.462Z,3.70
2023-05-05T11:55:06.393Z,3.72
2023-05-05T12:00:16.221Z,3.80
2023-05-05T12:05:25.242Z,3.63
2023-05-05T12:10:35.949Z,3.70
2023-05-05T12:15:39.747Z,4.15
2023-05-05T12:20:43.503Z,3.83
2023-05-05T12:25:48.883Z,4.10
2023-05-05T12:30:58.894Z,3.70
2023-05-05T12:36:09.406Z,4.00
2023-05-05T12:41:22.386Z,3.70
2023-05-05T12:51:34.346Z,3.22
2023-05-05T12:56:41.638Z,3.40
2023-05-05T13:01:52.646Z,3.38
2023-05-05T13:07:12.467Z,3.38
2023-05-05T13:12:24.470Z,3.50
2023-05-05T13:17:28.913Z,3.88
2023-05-05T13:22:32.610Z,3.67
2023-05-05T13:27:38.516Z,3.25
2023-05-05T13:32:42.294Z,4.03
2023-05-05T13:37:51.005Z,3.70
2023-05-05T13:42:56.226Z,3.25
2023-05-05T13:48:00.386Z,3.38
2023-05-05T13:53:04.636Z,3.05
2023-05-05T13:58:09.905Z,3.90
2023-05-05T14:03:13.641Z,3.60
2023-05-05T14:08:18.162Z,2.85
2023-05-05T14:18:37.215Z,3.60
2023-05-05T14:23:45.985Z,3.37
2023-05-05T14:28:56.294Z,3.47
2023-05-05T14:34:00.198Z,2.92
2023-05-05T14:39:08.990Z,3.77
2023-05-05T14:44:14.396Z,2.90
2023-05-05T14:49:18.144Z,2.60
2023-05-05T14:54:31.167Z,2.57
2023-05-05T14:59:36.348Z,2.42
2023-05-05T15:04:40.058Z,2.42
2023-05-05T15:09:48.807Z,2.57
2023-05-05T15:14:55.388Z,2.42
2023-05-05T15:20:05.522Z,3.00
2023-05-05T15:25:12.417Z,3.08
2023-05-05T15:30:22.841Z,2.35
2023-05-05T15:35:26.678Z,2.60
2023-05-05T15:45:45.953Z,2.63
2023-05-05T15:50:49.688Z,2.13
2023-05-05T15:55:58.608Z,2.00
2023-05-05T16:01:03.877Z,2.50
2023-05-05T16:06:10.103Z,2.42
2023-05-05T16:11:13.974Z,2.20
2023-05-05T16:16:24.405Z,2.33
2023-05-05T16:21:28.637Z,2.35
2023-05-05T16:26:37.438Z,2.13
2023-05-05T16:31:42.834Z,2.55
2023-05-05T16:36:46.627Z,2.25
2023-05-05T16:41:50.366Z,2.08
2023-05-05T16:46:55.711Z,2.25
2023-05-05T16:52:04.849Z,2.35
2023-05-05T16:57:08.675Z,2.40
2023-05-05T17:02:13.973Z,2.08
2023-05-05T17:07:17.848Z,2.08
2023-05-05T17:12:21.652Z,2.50
2023-05-05T17:17:26.926Z,2.00
2023-05-05T17:22:31.096Z,2.33
2023-05-05T17:27:35.950Z,2.33
2023-05-05T17:32:41.575Z,2.28
2023-05-05T17:37:48.826Z,5.43
2023-05-05T17:42:53.048Z,80.80
2023-05-05T17:47:58.364Z,505.73
2023-05-05T17:53:02.347Z,575.85
2023-05-05T17:58:11.176Z,477.73
2023-05-05T18:03:16.514Z,314.60
2023-05-05T18:08:20.693Z,721.97
2023-05-05T18:13:24.447Z,382.15
2023-05-05T18:18:29.713Z,165.40
2023-05-05T18:23:38.767Z,58.83
2023-05-05T18:28:42.620Z,13.98
2023-05-05T18:33:52.775Z,5.85
2023-05-05T18:38:56.484Z,7.60
2023-05-05T18:44:05.291Z,4.55
2023-05-05T18:49:10.553Z,5.07
2023-05-05T18:54:14.350Z,5.72
2023-05-05T18:59:23.177Z,11.80
2023-05-05T19:04:31.714Z,8.20
2023-05-05T19:09:40.813Z,4.75
2023-05-05T19:14:49.690Z,4.63
2023-05-05T19:19:55.406Z,4.55
2023-05-05T19:24:59.389Z,4.10
2023-05-05T19:30:03.628Z,4.68
2023-05-05T19:35:10.530Z,4.50
2023-05-05T19:40:14.854Z,4.07
2023-05-05T19:45:23.672Z,4.28
2023-05-05T19:50:33.855Z,4.63
2023-05-05T19:55:38.357Z,4.75
2023-05-05T20:00:42.409Z,4.63
2023-05-05T20:05:48.936Z,5.50
2023-05-05T20:10:52.703Z,5.68
2023-05-05T20:16:05.535Z,5.18
2023-05-05T20:21:11.177Z,5.28
2023-05-05T20:26:18.475Z,5.22
2023-05-05T20:31:24.036Z,5.50
2023-05-05T20:36:34.342Z,5.53
2023-05-05T20:41:40.476Z,4.90
2023-05-05T20:46:49.366Z,5.13
2023-05-05T20:51:54.830Z,5.72
2023-05-05T20:56:58.600Z,5.40
2023-05-05T21:02:02.456Z,5.80
2023-05-05T21:07:12.729Z,6.05
2023-05-05T21:12:16.418Z,6.53
2023-05-05T21:17:20.226Z,6.72
2023-05-05T21:22:25.417Z,6.85
2023-05-05T21:27:29.181Z,6.40
2023-05-05T21:32:32.982Z,6.90
2023-05-05T21:37:39.264Z,6.80
2023-05-05T21:42:43.745Z,5.93
2023-05-05T21:47:47.670Z,6.85
2023-05-05T21:52:53.579Z,6.80
2023-05-05T21:57:57.486Z,5.82
2023-05-05T22:03:01.482Z,6.25
2023-05-05T22:08:07.205Z,6.88
2023-05-05T22:13:11.556Z,6.28
2023-05-05T22:18:15.564Z,6.88
2023-05-05T22:23:20.958Z,6.22
2023-05-05T22:28:24.828Z,6.70
2023-05-05T22:33:28.798Z,6.47
2023-05-05T22:38:39.253Z,6.78
2023-05-05T22:43:43.107Z,7.28
2023-05-05T22:48:52.335Z,6.75
2023-05-05T22:53:57.511Z,7.55
2023-05-05T22:59:01.368Z,7.40
2023-05-05T23:04:05.844Z,7.30
2023-05-05T23:09:11.048Z,6.85
2023-05-05T23:14:16.880Z,7.55
2023-05-05T23:19:20.592Z,7.50
2023-05-05T23:24:25.756Z,7.28
2023-05-05T23:29:29.586Z,6.88
2023-05-05T23:34:38.406Z,6.97
2023-05-05T23:39:43.639Z,7.65
2023-05-05T23:44:52.353Z,6.85
2023-05-05T23:49:56.505Z,7.82
2023-05-05T23:55:01.634Z,6.93
